Time;durP1;ratioP1;P1;durP2;ratioP2;P2;SDS_P1;SDS_P2;PMS_P1;PMS_P2;Temp;Humidity;BMP_temperature;BMP_pressure;BME280_temperature;BME280_humidity;BME280_pressure;Samples;Min_cycle;Max_cycle;Signal;HPM_P1;HPM_P2
2022/06/20 00:00:33;;;;;;;15.55;4.32;;;;;;;;;;5035065;28;20048;-66
2022/06/20 00:03:00;;;;;;;16.27;4.18;;;;;;;;;;5034436;28;20045;-65
2022/06/20 00:05:28;;;;;;;15.02;4.32;;;;;;;;;;5035098;28;20123;-66
2022/06/20 00:07:54;;;;;;;13.93;4.10;;;;;;;;;;5034965;28;20501;-68
2022/06/20 00:10:21;;;;;;;16.08;4.28;;;;;;;;;;5035474;28;20088;-68
2022/06/20 00:12:48;;;;;;;12.85;3.90;;;;;;;;;;5000125;28;20433;-68
2022/06/20 00:15:21;;;;;;;15.60;4.03;;;;;;;;;;5034111;28;20397;-67
2022/06/20 00:17:47;;;;;;;15.02;4.22;;;;;;;;;;5035132;28;20049;-67
2022/06/20 00:20:14;;;;;;;14.25;4.10;;;;;;;;;;5034518;28;20406;-67
2022/06/20 00:22:40;;;;;;;16.30;4.22;;;;;;;;;;5033603;28;20044;-67
2022/06/20 00:25:06;;;;;;;13.93;3.97;;;;;;;;;;5032487;28;20069;-66
2022/06/20 00:27:32;;;;;;;13.93;3.55;;;;;;;;;;5018063;28;20045;-66
2022/06/20 00:29:59;;;;;;;13.73;4.03;;;;;;;;;;5034407;28;20512;-67
2022/06/20 00:32:25;;;;;;;13.60;4.15;;;;;;;;;;5034495;28;20091;-67
2022/06/20 00:34:51;;;;;;;15.45;4.30;;;;;;;;;;5033832;28;20061;-67
2022/06/20 00:37:18;;;;;;;13.32;4.03;;;;;;;;;;5033842;28;20037;-67
2022/06/20 00:39:49;;;;;;;13.48;3.90;;;;;;;;;;5034226;28;20041;-67
2022/06/20 00:42:15;;;;;;;15.45;4.32;;;;;;;;;;5032910;28;20091;-66
2022/06/20 00:44:41;;;;;;;;;;;;;;;;;;5033723;28;20089;-67
2022/06/20 00:47:09;;;;;;;12.85;3.47;;;;;;;;;;5033897;28;19917;-66
2022/06/20 00:49:40;;;;;;;15.10;3.90;;;;;;;;;;5034496;28;20124;-67
2022/06/20 00:52:11;;;;;;;15.80;3.80;;;;;;;;;;5015430;28;20065;-67
2022/06/20 00:54:37;;;;;;;14.55;4.00;;;;;;;;;;5034348;28;20037;-67
2022/06/20 00:57:15;;;;;;;13.70;4.00;;;;;;;;;;5032022;28;20112;-68
2022/06/20 00:59:46;;;;;;;10.90;3.50;;;;;;;;;;5033355;28;20041;-66
2022/06/20 01:02:26;;;;;;;14.05;3.95;;;;;;;;;;5032194;28;20041;-66
2022/06/20 01:04:54;;;;;;;17.75;3.88;;;;;;;;;;5033754;28;20041;-67
2022/06/20 01:07:23;;;;;;;14.15;3.28;;;;;;;;;;5032653;28;20052;-66
2022/06/20 01:09:50;;;;;;;16.77;3.60;;;;;;;;;;5034813;28;20045;-66
2022/06/20 01:12:19;;;;;;;10.73;3.47;;;;;;;;;;5016087;28;20373;-66
2022/06/20 01:14:45;;;;;;;10.00;3.03;;;;;;;;;;5032599;28;20088;-66
2022/06/20 01:17:16;;;;;;;16.10;4.10;;;;;;;;;;5033439;28;20133;-66
2022/06/20 01:19:48;;;;;;;14.75;4.05;;;;;;;;;;5033585;28;20057;-66
2022/06/20 01:22:23;;;;;;;17.65;3.90;;;;;;;;;;5034444;28;20045;-66
2022/06/20 01:24:58;;;;;;;12.70;3.70;;;;;;;;;;5032576;28;20076;-66
2022/06/20 01:27:36;;;;;;;14.02;3.83;;;;;;;;;;5031374;28;20042;-67
2022/06/20 01:30:02;;;;;;;17.50;4.00;;;;;;;;;;5033320;28;20045;-69
2022/06/20 01:32:28;;;;;;;;;;;;;;;;;;5034328;28;20041;-67
2022/06/20 01:34:54;;;;;;;13.77;3.70;;;;;;;;;;5014617;28;20400;-67
2022/06/20 01:37:25;;;;;;;12.32;3.67;;;;;;;;;;5032876;28;20373;-67
2022/06/20 01:39:53;;;;;;;11.52;3.70;;;;;;;;;;5034281;28;20493;-67
2022/06/20 01:42:20;;;;;;;17.10;4.55;;;;;;;;;;5013311;28;20584;-67
2022/06/20 01:44:52;;;;;;;14.65;3.95;;;;;;;;;;5032196;28;20091;-68
2022/06/20 01:47:18;;;;;;;15.95;4.25;;;;;;;;;;5031080;28;20469;-66
2022/06/20 01:49:46;;;;;;;11.73;3.83;;;;;;;;;;5033834;28;20046;-67
2022/06/20 01:52:18;;;;;;;14.30;3.92;;;;;;;;;;5032925;28;20045;-66
2022/06/20 01:54:49;;;;;;;14.18;3.42;;;;;;;;;;5032019;28;20120;-66
2022/06/20 01:57:16;;;;;;;20.08;4.43;;;;;;;;;;5031412;28;20084;-66
2022/06/20 01:59:45;;;;;;;15.30;3.88;;;;;;;;;;5032986;28;20124;-67
2022/06/20 02:02:12;;;;;;;12.73;3.65;;;;;;;;;;5015556;28;20038;-66
2022/06/20 02:04:38;;;;;;;15.63;3.80;;;;;;;;;;5032612;28;20041;-66
2022/06/20 02:07:07;;;;;;;14.65;3.60;;;;;;;;;;5032593;28;20053;-66
2022/06/20 02:09:33;;;;;;;14.02;3.63;;;;;;;;;;5014985;28;20052;-66
2022/06/20 02:12:00;;;;;;;16.15;3.60;;;;;;;;;;5032635;28;20120;-67
2022/06/20 02:14:30;;;;;;;12.63;3.55;;;;;;;;;;5033116;28;20469;-67
2022/06/20 02:16:59;;;;;;;11.82;3.58;;;;;;;;;;5031788;28;20436;-67
2022/06/20 02:19:27;;;;;;;14.35;3.83;;;;;;;;;;5030913;28;20056;-66
2022/06/20 02:21:58;;;;;;;9.45;3.00;;;;;;;;;;5031828;28;20123;-67
2022/06/20 02:24:25;;;;;;;13.75;3.58;;;;;;;;;;5016143;28;20037;-66
2022/06/20 02:26:54;;;;;;;11.20;3.58;;;;;;;;;;5014021;28;20069;-67
2022/06/20 02:29:22;;;;;;;12.57;3.50;;;;;;;;;;5029945;28;20473;-66
2022/06/20 02:31:53;;;;;;;13.13;3.33;;;;;;;;;;5033383;28;20476;-67
2022/06/20 02:34:20;;;;;;;12.55;3.40;;;;;;;;;;5031541;28;20045;-66
2022/06/20 02:36:46;;;;;;;13.68;3.45;;;;;;;;;;5032066;28;20489;-67
2022/06/20 02:39:12;;;;;;;11.38;2.83;;;;;;;;;;5032241;28;20081;-67
2022/06/20 02:41:39;;;;;;;14.13;3.70;;;;;;;;;;5032776;28;20052;-67
2022/06/20 02:44:08;;;;;;;13.48;3.38;;;;;;;;;;5030685;28;20076;-67
2022/06/20 02:46:34;;;;;;;10.10;3.45;;;;;;;;;;5032033;28;20048;-68
2022/06/20 02:49:02;;;;;;;13.25;3.70;;;;;;;;;;5031436;28;20116;-67
2022/06/20 02:51:31;;;;;;;14.75;4.00;;;;;;;;;;5030977;28;20045;-66
2022/06/20 02:53:58;;;;;;;12.88;3.58;;;;;;;;;;5031229;28;20033;-67
2022/06/20 02:56:26;;;;;;;14.07;3.70;;;;;;;;;;4997514;28;20139;-66
2022/06/20 02:58:54;;;;;;;16.25;4.15;;;;;;;;;;5028956;28;20342;-67
2022/06/20 03:01:29;;;;;;;12.07;3.55;;;;;;;;;;5030274;28;20052;-66
2022/06/20 03:03:56;;;;;;;12.40;3.97;;;;;;;;;;5030662;28;20124;-67
2022/06/20 03:06:27;;;;;;;15.07;4.50;;;;;;;;;;5028452;28;20209;-66
2022/06/20 03:08:55;;;;;;;13.73;3.70;;;;;;;;;;5016048;28;20037;-67
2022/06/20 03:11:22;;;;;;;16.77;4.00;;;;;;;;;;5028356;28;20037;-67
2022/06/20 03:13:48;;;;;;;19.70;4.78;;;;;;;;;;5030336;28;20033;-67
2022/06/20 03:16:15;;;;;;;14.98;3.92;;;;;;;;;;5028240;28;20079;-66
2022/06/20 03:18:42;;;;;;;18.25;4.63;;;;;;;;;;5030224;28;20506;-67
2022/06/20 03:21:09;;;;;;;16.63;4.15;;;;;;;;;;4996850;28;20041;-67
2022/06/20 03:23:36;;;;;;;16.77;4.18;;;;;;;;;;5031253;28;20041;-66
2022/06/20 03:26:04;;;;;;;13.25;4.25;;;;;;;;;;5030176;28;20041;-66
2022/06/20 03:28:32;;;;;;;15.13;4.35;;;;;;;;;;5028996;28;20523;-66
2022/06/20 03:30:58;;;;;;;15.65;4.38;;;;;;;;;;5031225;28;20041;-67
2022/06/20 03:33:25;;;;;;;15.98;4.65;;;;;;;;;;5019948;28;20393;-66
2022/06/20 03:35:56;;;;;;;15.25;4.43;;;;;;;;;;5031274;28;20041;-67
2022/06/20 03:38:23;;;;;;;13.15;4.00;;;;;;;;;;5030676;28;20061;-67
2022/06/20 03:40:49;;;;;;;12.05;4.22;;;;;;;;;;5029807;28;20052;-67
2022/06/20 03:43:16;;;;;;;15.65;4.32;;;;;;;;;;5028671;28;20033;-68
2022/06/20 03:45:45;;;;;;;15.68;4.90;;;;;;;;;;5030773;28;20045;-67
2022/06/20 03:48:14;;;;;;;11.02;4.50;;;;;;;;;;5029475;28;20044;-67
2022/06/20 03:50:42;;;;;;;16.00;4.93;;;;;;;;;;5010325;28;20045;-66
2022/06/20 03:53:15;;;;;;;16.60;4.70;;;;;;;;;;5030466;28;20037;-67
2022/06/20 03:55:47;;;;;;;18.08;4.55;;;;;;;;;;5030702;28;20041;-66
2022/06/20 03:58:16;;;;;;;16.52;4.93;;;;;;;;;;5029812;28;20076;-67
2022/06/20 04:00:47;;;;;;;14.23;4.60;;;;;;;;;;5028752;28;20496;-67
2022/06/20 04:03:13;;;;;;;14.90;4.65;;;;;;;;;;5012630;28;20048;-68
2022/06/20 04:05:46;;;;;;;16.30;4.93;;;;;;;;;;5029654;28;20045;-67
2022/06/20 04:10:57;;;;;;;13.88;5.05;;;;;;;;;;5031234;28;20048;-67
2022/06/20 04:11:13;;;;;;;16.17;4.53;;;;;;;;;;5032468;28;20175;-67
2022/06/20 04:13:43;;;;;;;16.63;4.95;;;;;;;;;;4999361;28;20124;-67
2022/06/20 04:16:09;;;;;;;14.80;5.43;;;;;;;;;;5034166;28;20053;-67
2022/06/20 04:18:48;;;;;;;15.93;5.07;;;;;;;;;;5033063;28;20049;-66
2022/06/20 04:21:26;;;;;;;13.18;4.45;;;;;;;;;;5016031;28;20042;-67
2022/06/20 04:24:01;;;;;;;14.18;4.60;;;;;;;;;;5032208;28;20033;-66
2022/06/20 04:26:46;;;;;;;18.25;5.22;;;;;;;;;;5026895;28;20041;-66
2022/06/20 04:29:15;;;;;;;19.23;5.55;;;;;;;;;;5032578;28;20131;-66
2022/06/20 04:31:41;;;;;;;15.63;5.30;;;;;;;;;;5032707;28;20057;-66
2022/06/20 04:34:14;;;;;;;21.88;5.50;;;;;;;;;;5033919;28;20037;-66
2022/06/20 04:36:43;;;;;;;15.85;5.43;;;;;;;;;;5034217;28;20045;-66
2022/06/20 04:39:27;;;;;;;15.60;5.35;;;;;;;;;;5032752;28;20412;-66
2022/06/20 04:41:58;;;;;;;17.67;5.20;;;;;;;;;;5031805;28;20048;-66
2022/06/20 04:44:31;;;;;;;15.27;5.05;;;;;;;;;;5033751;28;20042;-66
2022/06/20 04:47:32;;;;;;;17.95;5.30;;;;;;;;;;5033789;28;20045;-67
2022/06/20 04:49:59;;;;;;;16.73;5.38;;;;;;;;;;4950418;29;20083;-66
2022/06/20 04:52:27;;;;;;;12.32;4.75;;;;;;;;;;5016224;28;20425;-66
2022/06/20 04:54:54;;;;;;;15.77;4.88;;;;;;;;;;5031978;28;20486;-66
2022/06/20 04:57:20;;;;;;;15.82;5.50;;;;;;;;;;5033083;28;20095;-66
2022/06/20 04:59:46;;;;;;;21.15;6.10;;;;;;;;;;5032215;28;20077;-66
2022/06/20 05:02:16;;;;;;;15.43;5.75;;;;;;;;;;5032747;28;20485;-67
2022/06/20 05:04:45;;;;;;;17.23;6.03;;;;;;;;;;5033071;28;20037;-66
2022/06/20 05:07:24;;;;;;;16.83;5.75;;;;;;;;;;5033053;28;20091;-66
2022/06/20 05:09:59;;;;;;;12.55;5.50;;;;;;;;;;5032313;28;20045;-66
2022/06/20 05:12:29;;;;;;;16.85;5.65;;;;;;;;;;5028574;28;20063;-66
2022/06/20 05:14:55;;;;;;;19.52;6.40;;;;;;;;;;5013706;28;20084;-66
2022/06/20 05:17:23;;;;;;;18.33;5.65;;;;;;;;;;5033489;28;20064;-67
2022/06/20 05:19:51;;;;;;;16.55;6.10;;;;;;;;;;5013313;28;20061;-66
2022/06/20 05:22:20;;;;;;;19.80;5.25;;;;;;;;;;5030741;28;20068;-67
2022/06/20 05:24:46;;;;;;;21.73;6.65;;;;;;;;;;5030637;28;20099;-66
2022/06/20 05:27:33;;;;;;;21.38;6.35;;;;;;;;;;5037292;28;20064;-70
2022/06/20 05:30:04;;;;;;;18.63;5.10;;;;;;;;;;5028057;28;20501;-66
2022/06/20 05:32:37;;;;;;;15.68;5.75;;;;;;;;;;5026704;28;20068;-66
2022/06/20 05:35:08;;;;;;;20.38;6.68;;;;;;;;;;5010791;28;20044;-66
2022/06/20 05:37:47;;;;;;;16.42;6.13;;;;;;;;;;5028923;28;20120;-66
2022/06/20 05:40:17;;;;;;;18.23;6.38;;;;;;;;;;5029841;28;20117;-65
2022/06/20 05:42:43;;;;;;;17.38;5.90;;;;;;;;;;5025361;28;20045;-66
2022/06/20 05:45:13;;;;;;;21.65;6.05;;;;;;;;;;5029803;28;20099;-66
2022/06/20 05:47:40;;;;;;;18.90;6.18;;;;;;;;;;5028117;28;20045;-66
2022/06/20 05:50:15;;;;;;;22.35;6.32;;;;;;;;;;5028701;28;20116;-67
2022/06/20 05:52:42;;;;;;;21.48;6.13;;;;;;;;;;5026766;28;20053;-66
2022/06/20 05:55:14;;;;;;;21.55;6.22;;;;;;;;;;5013762;28;20363;-68
2022/06/20 05:57:41;;;;;;;19.70;6.55;;;;;;;;;;5032402;28;20136;-66
2022/06/20 06:00:19;;;;;;;19.45;6.13;;;;;;;;;;5031503;28;20204;-67
2022/06/20 06:02:52;;;;;;;18.00;5.40;;;;;;;;;;5029605;28;20091;-66
2022/06/20 06:05:18;;;;;;;25.45;6.28;;;;;;;;;;5029452;28;20045;-66
2022/06/20 06:07:48;;;;;;;22.67;5.72;;;;;;;;;;5025807;28;20456;-65
2022/06/20 06:10:27;;;;;;;16.80;5.60;;;;;;;;;;5030566;28;20048;-66
2022/06/20 06:12:56;;;;;;;21.52;6.03;;;;;;;;;;5024119;28;20409;-66
2022/06/20 06:15:28;;;;;;;19.75;5.57;;;;;;;;;;5013613;28;20060;-67
2022/06/20 06:17:58;;;;;;;20.38;5.90;;;;;;;;;;5026665;28;20109;-66
2022/06/20 06:20:25;;;;;;;19.05;5.70;;;;;;;;;;5031125;28;20064;-67
2022/06/20 06:22:54;;;;;;;18.63;5.40;;;;;;;;;;5029431;28;20107;-65
2022/06/20 06:25:20;;;;;;;15.02;5.57;;;;;;;;;;5030687;28;20452;-67
2022/06/20 06:27:47;;;;;;;18.92;5.35;;;;;;;;;;5030658;28;20120;-67
2022/06/20 06:30:18;;;;;;;20.30;5.28;;;;;;;;;;5032071;28;20107;-66
2022/06/20 06:32:49;;;;;;;21.45;5.53;;;;;;;;;;5031876;28;20464;-67
2022/06/20 06:35:19;;;;;;;18.73;4.97;;;;;;;;;;5032492;28;20045;-67
2022/06/20 06:37:55;;;;;;;18.48;4.70;;;;;;;;;;5032708;28;20045;-66
2022/06/20 06:40:23;;;;;;;20.83;5.63;;;;;;;;;;5032220;28;20041;-65
2022/06/20 06:42:50;;;;;;;16.77;4.78;;;;;;;;;;5012813;28;20168;-65
2022/06/20 06:45:22;;;;;;;18.67;5.53;;;;;;;;;;5030069;28;20410;-66
2022/06/20 06:47:56;;;;;;;18.95;5.03;;;;;;;;;;5030368;28;20140;-64
2022/06/20 06:50:22;;;;;;;19.60;4.82;;;;;;;;;;5030170;28;20076;-66
2022/06/20 06:52:56;;;;;;;17.80;4.57;;;;;;;;;;5031000;28;20045;-65
2022/06/20 06:56:01;;;;;;;17.17;4.53;;;;;;;;;;5010439;28;20064;-66
2022/06/20 06:58:33;;;;;;;15.02;4.35;;;;;;;;;;4950863;29;20055;-66
2022/06/20 07:01:12;;;;;;;19.27;4.95;;;;;;;;;;4967500;28;20094;-66
2022/06/20 07:03:40;;;;;;;19.70;5.68;;;;;;;;;;5000105;28;20062;-65
2022/06/20 07:06:11;;;;;;;16.85;4.88;;;;;;;;;;5023012;28;20041;-67
2022/06/20 07:08:40;;;;;;;18.02;4.55;;;;;;;;;;5013106;28;20069;-68
2022/06/20 07:11:06;;;;;;;18.23;4.65;;;;;;;;;;5020244;28;20043;-66
2022/06/20 07:13:51;;;;;;;19.98;5.22;;;;;;;;;;5044416;28;20072;-66
2022/06/20 07:16:19;;;;;;;17.17;5.20;;;;;;;;;;5028435;28;20099;-66
2022/06/20 07:18:47;;;;;;;18.77;4.65;;;;;;;;;;5028763;28;20060;-66
2022/06/20 07:21:15;;;;;;;18.17;4.97;;;;;;;;;;5006908;28;20612;-66
2022/06/20 07:23:42;;;;;;;16.67;4.53;;;;;;;;;;5028472;28;20112;-67
2022/06/20 07:26:08;;;;;;;22.80;4.45;;;;;;;;;;5028396;28;20045;-66
2022/06/20 07:28:34;;;;;;;;;;;;;;;;;;5030296;28;20132;-65
2022/06/20 07:31:05;;;;;;;18.65;4.18;;;;;;;;;;5009585;28;20004;-65
2022/06/20 07:33:35;;;;;;;12.02;3.45;;;;;;;;;;5028671;28;20048;-66
2022/06/20 07:36:04;;;;;;;12.75;3.88;;;;;;;;;;5011651;28;20050;-65
2022/06/20 07:38:46;;;;;;;27.85;4.30;;;;;;;;;;5017080;28;20092;-66
2022/06/20 07:41:13;;;;;;;19.83;4.10;;;;;;;;;;5029347;28;20485;-66
2022/06/20 07:43:39;;;;;;;17.95;4.05;;;;;;;;;;5029886;28;20095;-67
2022/06/20 07:46:11;;;;;;;10.15;2.90;;;;;;;;;;5016938;28;20053;-67
2022/06/20 07:48:38;;;;;;;11.80;3.47;;;;;;;;;;5034724;28;20094;-64
2022/06/20 07:51:17;;;;;;;14.63;3.72;;;;;;;;;;5027123;28;20048;-66
2022/06/20 07:54:02;;;;;;;13.95;3.45;;;;;;;;;;5031538;28;20607;-66
2022/06/20 07:56:31;;;;;;;15.38;3.60;;;;;;;;;;5016157;28;20345;-66
2022/06/20 07:59:01;;;;;;;13.60;3.47;;;;;;;;;;5006474;28;20045;-64
2022/06/20 08:01:33;;;;;;;13.52;3.22;;;;;;;;;;5033663;28;20080;-68
2022/06/20 08:03:59;;;;;;;13.18;3.22;;;;;;;;;;5037895;28;20053;-65
2022/06/20 08:06:37;;;;;;;13.07;3.10;;;;;;;;;;5035009;28;20049;-68
2022/06/20 08:09:07;;;;;;;12.70;3.50;;;;;;;;;;5013710;28;20056;-67
2022/06/20 08:11:42;;;;;;;12.52;3.50;;;;;;;;;;5036782;28;20046;-68
2022/06/20 08:14:11;;;;;;;14.38;3.17;;;;;;;;;;4998405;28;20041;-67
2022/06/20 08:16:38;;;;;;;19.15;3.40;;;;;;;;;;5016356;28;20041;-68
2022/06/20 08:19:04;;;;;;;14.50;3.15;;;;;;;;;;5035380;28;20061;-68
2022/06/20 08:21:30;;;;;;;;;;;;;;;;;;5033325;28;20103;-67
2022/06/20 08:24:02;;;;;;;20.20;3.83;;;;;;;;;;5016999;28;19925;-67
2022/06/20 08:26:41;;;;;;;9.55;2.88;;;;;;;;;;5032574;28;20045;-68
2022/06/20 08:29:09;;;;;;;16.30;4.07;;;;;;;;;;5030784;28;20062;-67
2022/06/20 08:31:44;;;;;;;21.35;4.15;;;;;;;;;;5035263;28;20460;-68
2022/06/20 08:34:23;;;;;;;14.43;3.53;;;;;;;;;;5023461;28;20167;-68
2022/06/20 08:36:49;;;;;;;13.40;3.20;;;;;;;;;;5033366;28;20046;-69
2022/06/20 08:39:21;;;;;;;15.85;3.78;;;;;;;;;;5032539;28;20100;-67
2022/06/20 08:41:47;;;;;;;10.18;3.08;;;;;;;;;;5030837;28;20110;-67
2022/06/20 08:44:32;;;;;;;12.90;3.50;;;;;;;;;;5030147;28;20092;-67
2022/06/20 08:46:58;;;;;;;10.82;3.10;;;;;;;;;;5030064;28;20133;-67
2022/06/20 08:49:42;;;;;;;11.60;3.13;;;;;;;;;;5032576;28;20116;-68
2022/06/20 08:52:27;;;;;;;14.93;3.47;;;;;;;;;;5032083;28;20121;-68
2022/06/20 08:55:06;;;;;;;19.05;3.60;;;;;;;;;;5014337;28;20053;-65
2022/06/20 08:57:36;;;;;;;11.70;3.15;;;;;;;;;;5028468;28;20046;-70
2022/06/20 09:00:11;;;;;;;14.40;3.67;;;;;;;;;;5014050;28;20436;-67
2022/06/20 09:02:43;;;;;;;16.17;3.35;;;;;;;;;;5029692;28;20053;-65
2022/06/20 09:05:12;;;;;;;14.48;3.58;;;;;;;;;;5006849;28;20100;-69
2022/06/20 09:07:38;;;;;;;14.98;3.63;;;;;;;;;;5025060;28;20445;-68
2022/06/20 09:10:10;;;;;;;15.88;2.83;;;;;;;;;;5031993;28;20096;-68
2022/06/20 09:12:36;;;;;;;12.10;2.80;;;;;;;;;;5025959;28;20049;-70
2022/06/20 09:15:05;;;;;;;11.55;2.70;;;;;;;;;;5027201;28;20489;-71
2022/06/20 09:17:34;;;;;;;8.80;2.63;;;;;;;;;;5011945;28;20053;-73
2022/06/20 09:20:08;;;;;;;8.05;2.70;;;;;;;;;;5013924;28;20049;-67
2022/06/20 09:22:46;;;;;;;14.52;2.97;;;;;;;;;;5030914;28;20041;-65
2022/06/20 09:25:31;;;;;;;17.42;3.75;;;;;;;;;;5028434;28;20049;-67
2022/06/20 09:28:00;;;;;;;12.15;2.72;;;;;;;;;;5028569;28;20057;-69
2022/06/20 09:30:42;;;;;;;10.57;2.65;;;;;;;;;;5031589;28;20049;-67
2022/06/20 09:33:27;;;;;;;8.52;2.60;;;;;;;;;;5014382;28;20053;-67
2022/06/20 09:36:08;;;;;;;14.63;3.30;;;;;;;;;;5031811;28;20116;-67
2022/06/20 09:38:34;;;;;;;12.52;2.92;;;;;;;;;;5031237;28;20481;-69
2022/06/20 09:41:05;;;;;;;8.38;2.65;;;;;;;;;;5030596;28;20038;-68
2022/06/20 09:43:40;;;;;;;15.13;3.58;;;;;;;;;;5029933;28;20597;-65
2022/06/20 09:46:12;;;;;;;9.55;2.80;;;;;;;;;;5026916;28;20049;-66
2022/06/20 09:48:44;;;;;;;10.60;3.08;;;;;;;;;;5030717;28;20072;-67
2022/06/20 09:51:22;;;;;;;10.90;2.85;;;;;;;;;;5025738;28;20060;-68
2022/06/20 09:54:17;;;;;;;15.35;3.33;;;;;;;;;;5030110;28;20409;-68
2022/06/20 09:56:55;;;;;;;13.55;3.58;;;;;;;;;;5014259;28;20053;-66
2022/06/20 09:59:31;;;;;;;12.90;3.45;;;;;;;;;;5013873;28;20459;-65
2022/06/20 10:01:57;;;;;;;20.08;3.20;;;;;;;;;;5028820;28;20116;-67
2022/06/20 10:04:26;;;;;;;16.10;3.92;;;;;;;;;;5013479;28;20045;-67
2022/06/20 10:07:00;;;;;;;13.70;2.83;;;;;;;;;;5031401;28;20045;-67
2022/06/20 10:09:29;;;;;;;11.80;2.65;;;;;;;;;;5011891;28;20384;-66
2022/06/20 10:12:12;;;;;;;10.77;3.15;;;;;;;;;;5012813;28;20092;-67
2022/06/20 10:14:38;;;;;;;10.93;2.78;;;;;;;;;;5030742;28;20045;-68
2022/06/20 10:17:14;;;;;;;10.07;2.80;;;;;;;;;;5031842;28;20060;-68
2022/06/20 10:19:58;;;;;;;10.98;2.75;;;;;;;;;;5028260;28;20061;-68
2022/06/20 10:22:37;;;;;;;11.73;3.17;;;;;;;;;;5030730;28;20381;-69
2022/06/20 10:25:16;;;;;;;10.10;2.60;;;;;;;;;;5030315;28;20119;-70
2022/06/20 10:28:01;;;;;;;11.88;2.70;;;;;;;;;;5031518;28;20076;-71
2022/06/20 10:30:28;;;;;;;11.18;3.50;;;;;;;;;;5031115;28;20052;-69
2022/06/20 10:32:55;;;;;;;13.00;2.90;;;;;;;;;;5033648;28;20124;-71
2022/06/20 10:35:43;;;;;;;10.98;2.80;;;;;;;;;;5029368;28;20417;-71
2022/06/20 10:38:20;;;;;;;11.57;2.53;;;;;;;;;;5013089;28;20080;-68
2022/06/20 10:41:05;;;;;;;11.90;3.30;;;;;;;;;;5031707;28;20552;-73
2022/06/20 10:43:34;;;;;;;9.20;2.83;;;;;;;;;;5029150;28;20041;-74
2022/06/20 10:46:09;;;;;;;9.35;2.75;;;;;;;;;;5030767;28;20053;-76
2022/06/20 10:48:39;;;;;;;11.60;2.45;;;;;;;;;;5013562;28;20073;-78
2022/06/20 10:51:28;;;;;;;10.27;3.00;;;;;;;;;;5031084;28;20528;-83
2022/06/20 10:54:10;;;;;;;12.82;3.38;;;;;;;;;;5014151;28;20060;-77
2022/06/20 10:56:40;;;;;;;14.75;3.10;;;;;;;;;;5031192;28;20085;-80
2022/06/20 10:59:06;;;;;;;11.80;3.15;;;;;;;;;;5029453;28;20049;-77
2022/06/20 11:01:38;;;;;;;10.98;3.10;;;;;;;;;;5029039;28;20051;-76
2022/06/20 11:04:13;;;;;;;11.57;3.03;;;;;;;;;;5029227;28;20183;-75
2022/06/20 11:06:52;;;;;;;9.23;2.47;;;;;;;;;;5010336;28;20049;-71
2022/06/20 11:09:33;;;;;;;10.73;3.08;;;;;;;;;;5029591;28;20041;-73
2022/06/20 11:12:06;;;;;;;11.45;3.35;;;;;;;;;;5027269;28;20083;-75
2022/06/20 11:14:42;;;;;;;10.70;2.92;;;;;;;;;;5013775;28;20045;-77
2022/06/20 11:17:27;;;;;;;9.23;2.80;;;;;;;;;;5010931;28;20537;-76
2022/06/20 11:19:56;;;;;;;9.60;2.90;;;;;;;;;;5031030;28;20045;-75
2022/06/20 11:22:29;;;;;;;8.77;2.53;;;;;;;;;;4997363;28;20041;-74
2022/06/20 11:24:55;;;;;;;13.68;3.13;;;;;;;;;;5031401;28;20107;-74
2022/06/20 11:27:24;;;;;;;9.48;2.92;;;;;;;;;;5026510;28;20092;-78
2022/06/20 11:30:09;;;;;;;10.25;3.05;;;;;;;;;;5025485;28;20103;-83
2022/06/20 11:32:50;;;;;;;11.45;3.22;;;;;;;;;;5028195;28;20045;-78
2022/06/20 11:35:30;;;;;;;15.23;3.38;;;;;;;;;;5030881;28;20207;-77
2022/06/20 11:37:57;;;;;;;9.32;2.70;;;;;;;;;;5012034;28;20129;-86
2022/06/20 11:40:32;;;;;;;9.98;3.05;;;;;;;;;;5012011;28;20050;-81
2022/06/20 11:43:17;;;;;;;13.13;4.10;;;;;;;;;;5014409;28;20567;-78
2022/06/20 11:46:02;;;;;;;7.60;2.78;;;;;;;;;;5030774;28;20057;-81
2022/06/20 11:48:47;;;;;;;11.25;3.20;;;;;;;;;;5017570;28;20049;-78
2022/06/20 11:51:13;;;;;;;12.50;3.20;;;;;;;;;;5029622;28;20053;-74
2022/06/20 11:53:42;;;;;;;12.75;3.65;;;;;;;;;;5031085;28;20044;-75
2022/06/20 11:56:25;;;;;;;12.88;3.88;;;;;;;;;;5028471;28;20480;-80
2022/06/20 11:59:10;;;;;;;10.70;3.70;;;;;;;;;;5029488;28;20401;-71
2022/06/20 12:01:59;;;;;;;14.68;4.53;;;;;;;;;;5047218;28;20045;-75
2022/06/20 12:04:28;;;;;;;13.20;3.95;;;;;;;;;;5036504;28;20405;-72
2022/06/20 12:07:13;;;;;;;13.00;4.18;;;;;;;;;;5012324;28;20038;-72
2022/06/20 12:09:42;;;;;;;13.20;4.15;;;;;;;;;;5030465;28;20481;-81
2022/06/20 12:12:08;;;;;;;15.73;3.72;;;;;;;;;;5028914;28;20095;-75
2022/06/20 12:14:34;;;;;;;11.73;3.78;;;;;;;;;;5030164;28;20053;-78
2022/06/20 12:17:13;;;;;;;16.73;3.30;;;;;;;;;;5029051;28;20144;-79
2022/06/20 12:25:20;;;;;;;;;;;;;;;;;;5011305;28;20061;-78
2022/06/20 12:27:46;;;;;;;11.98;2.85;;;;;;;;;;5009474;28;19921;-75
2022/06/20 12:30:14;;;;;;;11.32;3.17;;;;;;;;;;5032798;28;20413;-81
2022/06/20 12:32:41;;;;;;;10.82;3.40;;;;;;;;;;5032078;28;20049;-75
2022/06/20 12:35:10;;;;;;;10.73;3.75;;;;;;;;;;5016354;28;20092;-78
2022/06/20 12:37:42;;;;;;;8.80;3.10;;;;;;;;;;5032137;28;20130;-75
2022/06/20 12:40:08;;;;;;;11.55;3.08;;;;;;;;;;5015577;28;20050;-78
2022/06/20 12:42:48;;;;;;;10.88;3.38;;;;;;;;;;5030588;28;20045;-75
2022/06/20 12:45:26;;;;;;;9.82;3.45;;;;;;;;;;5020992;28;20097;-77
2022/06/20 12:48:08;;;;;;;9.95;2.85;;;;;;;;;;5038573;28;20053;-79
2022/06/20 12:50:39;;;;;;;11.25;3.20;;;;;;;;;;5034449;28;20481;-79
2022/06/20 12:53:22;;;;;;;12.02;3.25;;;;;;;;;;5032100;28;20136;-77
2022/06/20 12:55:54;;;;;;;10.05;2.85;;;;;;;;;;4999830;28;20132;-81
2022/06/20 12:58:25;;;;;;;11.80;3.30;;;;;;;;;;5033835;28;20049;-75
2022/06/20 13:00:51;;;;;;;16.48;3.80;;;;;;;;;;5032904;28;20050;-66
2022/06/20 13:03:38;;;;;;;10.27;3.08;;;;;;;;;;5027364;28;20080;-67
2022/06/20 13:06:15;;;;;;;18.80;3.50;;;;;;;;;;5030136;28;20099;-68
2022/06/20 13:08:41;;;;;;;;;;;;;;;;;;4999628;28;20494;-70
2022/06/20 13:11:19;;;;;;;14.60;4.43;;;;;;;;;;5015707;28;19944;-68
2022/06/20 13:14:04;;;;;;;22.92;6.50;;;;;;;;;;5031275;28;20041;-68
2022/06/20 13:16:38;;;;;;;18.48;3.88;;;;;;;;;;5033511;28;20087;-66
2022/06/20 13:19:04;;;;;;;9.70;3.25;;;;;;;;;;5033501;28;20045;-67
2022/06/20 13:21:48;;;;;;;14.30;3.45;;;;;;;;;;5033378;28;20099;-68
2022/06/20 13:24:27;;;;;;;13.60;3.45;;;;;;;;;;5014496;28;20041;-67
2022/06/20 13:27:03;;;;;;;13.30;3.70;;;;;;;;;;5031875;28;20057;-66
2022/06/20 13:29:42;;;;;;;12.52;3.80;;;;;;;;;;5033494;28;20436;-67
2022/06/20 13:32:13;;;;;;;14.30;4.20;;;;;;;;;;5015354;28;20060;-64
2022/06/20 13:34:49;;;;;;;46.42;5.35;;;;;;;;;;5031476;28;20710;-64
2022/06/20 13:37:17;;;;;;;22.00;3.63;;;;;;;;;;5031470;28;20115;-65
2022/06/20 13:39:43;;;;;;;10.32;3.40;;;;;;;;;;4996158;28;20054;-64
2022/06/20 13:42:22;;;;;;;17.73;4.20;;;;;;;;;;5030874;28;20382;-65
2022/06/20 13:44:51;;;;;;;11.05;3.47;;;;;;;;;;5013456;28;20128;-62
2022/06/20 13:47:20;;;;;;;10.35;2.78;;;;;;;;;;5013386;28;20133;-72
2022/06/20 13:50:05;;;;;;;13.45;3.70;;;;;;;;;;5031983;28;20046;-67
2022/06/20 13:52:35;;;;;;;10.35;3.00;;;;;;;;;;5028634;28;20124;-69
2022/06/20 13:55:01;;;;;;;10.93;3.33;;;;;;;;;;5031822;28;20124;-69
2022/06/20 13:57:31;;;;;;;14.15;3.67;;;;;;;;;;5031801;28;20458;-72
2022/06/20 14:00:05;;;;;;;15.52;3.63;;;;;;;;;;5031852;28;20045;-76
2022/06/20 14:02:42;;;;;;;10.25;3.33;;;;;;;;;;5031947;28;20080;-69
2022/06/20 14:05:16;;;;;;;13.02;3.13;;;;;;;;;;5030417;28;20049;-67
2022/06/20 14:07:44;;;;;;;14.18;3.30;;;;;;;;;;5016687;28;20084;-66
2022/06/20 14:10:20;;;;;;;11.93;2.88;;;;;;;;;;5030156;28;20064;-72
2022/06/20 14:12:46;;;;;;;;;;;;;;;;;;5024136;28;20124;-67
2022/06/20 14:15:24;;;;;;;13.05;3.75;;;;;;;;;;5013675;28;20003;-66
2022/06/20 14:17:52;;;;;;;12.77;3.22;;;;;;;;;;5011714;28;20061;-65
2022/06/20 14:20:26;;;;;;;17.33;4.20;;;;;;;;;;5011815;28;20053;-67
2022/06/20 14:22:54;;;;;;;11.05;3.67;;;;;;;;;;5009924;28;20077;-65
2022/06/20 14:25:29;;;;;;;12.52;3.47;;;;;;;;;;5030549;28;20045;-67
2022/06/20 14:28:00;;;;;;;10.32;3.40;;;;;;;;;;5028714;28;20060;-65
2022/06/20 14:30:30;;;;;;;12.77;3.53;;;;;;;;;;4996055;28;20400;-67
2022/06/20 14:33:04;;;;;;;10.70;3.70;;;;;;;;;;5029191;28;20548;-65
2022/06/20 14:35:34;;;;;;;11.23;3.63;;;;;;;;;;5029731;28;20045;-66
2022/06/20 14:38:03;;;;;;;12.00;3.35;;;;;;;;;;5011197;28;20103;-67
2022/06/20 14:40:32;;;;;;;11.57;3.40;;;;;;;;;;5028399;28;20095;-67
2022/06/20 14:43:05;;;;;;;13.73;3.40;;;;;;;;;;5028093;28;20553;-66
2022/06/20 14:45:35;;;;;;;11.23;3.70;;;;;;;;;;5010352;28;20052;-67
2022/06/20 14:48:01;;;;;;;11.07;3.38;;;;;;;;;;5027056;28;20048;-65
2022/06/20 14:50:33;;;;;;;14.27;4.30;;;;;;;;;;5027845;28;20130;-65
2022/06/20 14:53:05;;;;;;;12.82;3.40;;;;;;;;;;5029276;28;20450;-66
2022/06/20 14:55:33;;;;;;;11.93;3.92;;;;;;;;;;5029106;28;20107;-66
2022/06/20 14:58:13;;;;;;;12.82;3.83;;;;;;;;;;5026973;28;20080;-66
2022/06/20 15:00:55;;;;;;;15.20;4.25;;;;;;;;;;5010679;28;20049;-67
2022/06/20 15:03:31;;;;;;;15.05;4.25;;;;;;;;;;5030350;28;20371;-65
2022/06/20 15:06:06;;;;;;;14.07;4.53;;;;;;;;;;5029467;28;20060;-66